Almira, Washington
Current Conditions -  °F | °C
As of 12:43 AM on Saturday 22 Nov 2014 (Local Time) from KEPH Reporting Station
Haze Haze  
Wind Chill: -1°   Ceiling: 400
Heat Index: -1°   Visibility: 5mi
Dew Point: -1°   Wind: 3mph
Humidity: 96%   Direction: NA
Pressure: 29.42"   Gusts: NA
Location:  47.71°N, 118.94°W
Report Text: KEPH 220843Z AUTO VRB03KT 5SM BR BKN004 M01/M01 A2942 RMK AO2 T10061011
Loading
Personal Weather Stations






























Interactive Weather Map New forecast layout! Learn more

10-Day Weather Forecast

Advertisements
Track Severe Weather on mobile